Time;durP1;ratioP1;P1;durP2;ratioP2;P2;SDS_P1;SDS_P2;PMS_P1;PMS_P2;Temp;Humidity;BMP_temperature;BMP_pressure;BME280_temperature;BME280_humidity;BME280_pressure;Samples;Min_cycle;Max_cycle;Signal;HPM_P1;HPM_P2
2023/03/31 00:02:01;;;;;;;2.30;1.20;;;11.80;97.30;;;;;;5043239;28;20424;-75
2023/03/31 00:04:30;;;;;;;4.53;1.38;;;11.80;98.30;;;;;;5036118;28;20474;-72
2023/03/31 00:06:57;;;;;;;2.83;1.30;;;11.70;99.60;;;;;;5033539;28;20419;-71
2023/03/31 00:09:24;;;;;;;4.57;1.40;;;11.60;99.90;;;;;;5037823;28;20433;-71
2023/03/31 00:11:52;;;;;;;2.92;1.60;;;11.50;99.90;;;;;;5036530;28;20426;-71
2023/03/31 00:14:20;;;;;;;2.80;1.50;;;11.40;99.90;;;;;;5038363;28;20501;-71
2023/03/31 00:16:48;;;;;;;3.25;1.33;;;11.30;99.90;;;;;;5045321;28;20412;-70
2023/03/31 00:19:18;;;;;;;4.15;1.77;;;11.20;99.90;;;;;;5030947;28;20433;-71
2023/03/31 00:21:46;;;;;;;4.97;1.70;;;11.10;99.90;;;;;;5035422;28;20802;-71
2023/03/31 00:24:14;;;;;;;3.63;1.70;;;11.00;99.90;;;;;;5034738;28;20417;-71
2023/03/31 00:26:41;;;;;;;6.20;1.77;;;11.00;99.90;;;;;;5036581;28;20974;-71
2023/03/31 00:29:11;;;;;;;4.80;1.70;;;11.00;99.90;;;;;;5032582;28;20434;-71
2023/03/31 00:31:38;;;;;;;4.32;1.95;;;11.00;99.90;;;;;;5027959;28;20441;-71
2023/03/31 00:34:06;;;;;;;3.90;1.42;;;10.90;99.90;;;;;;5036070;28;20429;-72
2023/03/31 00:36:35;;;;;;;5.00;1.80;;;10.90;99.90;;;;;;5036359;28;20904;-70
2023/03/31 00:39:04;;;;;;;6.85;1.90;;;10.90;99.90;;;;;;5030994;28;20415;-71
2023/03/31 00:41:31;;;;;;;4.28;1.98;;;10.90;99.90;;;;;;5031082;28;20435;-72
2023/03/31 00:44:07;;;;;;;3.85;1.52;;;10.80;99.90;;;;;;5042030;28;20417;-72
2023/03/31 00:46:38;;;;;;;5.32;1.88;;;10.80;99.90;;;;;;5040541;28;20446;-73
2023/03/31 00:49:15;;;;;;;5.80;1.90;;;10.80;99.90;;;;;;5033974;28;20431;-70
2023/03/31 00:51:43;;;;;;;5.07;1.88;;;10.70;99.90;;;;;;5044078;28;20619;-71
2023/03/31 00:54:10;;;;;;;4.40;1.70;;;10.70;99.90;;;;;;5038077;28;20423;-71
2023/03/31 00:56:40;;;;;;;5.10;2.20;;;10.70;99.90;;;;;;5038497;28;20851;-72
2023/03/31 00:59:12;;;;;;;5.47;1.70;;;10.70;99.90;;;;;;5048881;28;20439;-71
2023/03/31 01:01:42;;;;;;;5.40;1.70;;;10.60;99.90;;;;;;5073409;28;20450;-71
2023/03/31 01:04:12;;;;;;;5.85;1.75;;;10.60;99.90;;;;;;5058214;28;20417;-73
2023/03/31 01:06:45;;;;;;;5.07;1.90;;;10.60;99.90;;;;;;5057751;28;20699;-72
2023/03/31 01:09:15;;;;;;;4.95;1.88;;;10.60;99.90;;;;;;5038392;28;20430;-73
2023/03/31 01:11:45;;;;;;;5.80;2.00;;;10.60;99.90;;;;;;5038576;28;20434;-73
2023/03/31 01:14:12;;;;;;;3.60;1.75;;;10.60;99.90;;;;;;5037757;28;20423;-70
2023/03/31 01:16:39;;;;;;;4.40;2.00;;;10.70;99.90;;;;;;5033487;28;20451;-71
2023/03/31 01:19:09;;;;;;;5.43;2.00;;;10.70;99.90;;;;;;5032152;28;20582;-73
2023/03/31 01:22:10;;;;;;;5.27;2.00;;;10.70;99.90;;;;;;5039488;28;20425;-71
2023/03/31 01:25:14;;;;;;;4.10;1.60;;;10.70;99.90;;;;;;5033639;28;20914;-74
2023/03/31 01:27:54;;;;;;;6.03;1.80;;;10.70;99.90;;;;;;5011145;28;20422;-71
2023/03/31 01:30:56;;;;;;;4.57;1.50;;;10.70;99.90;;;;;;5029782;28;20952;-72
2023/03/31 01:33:59;;;;;;;8.00;2.10;;;10.70;99.90;;;;;;5000043;28;20909;-71
2023/03/31 01:36:59;;;;;;;5.43;1.75;;;10.70;99.90;;;;;;5036775;28;20421;-72
2023/03/31 01:39:56;;;;;;;5.75;1.90;;;10.80;99.90;;;;;;4986154;28;20502;-72
2023/03/31 01:42:30;;;;;;;5.17;1.80;;;10.80;99.90;;;;;;5038578;28;20448;-70
2023/03/31 01:45:05;;;;;;;4.95;1.40;;;10.90;99.90;;;;;;5039857;28;20632;-71
2023/03/31 01:47:39;;;;;;;5.43;2.00;;;10.90;99.90;;;;;;5042538;28;20881;-70
2023/03/31 01:50:11;;;;;;;5.50;1.95;;;10.90;99.90;;;;;;5045463;28;20924;-73
2023/03/31 01:52:43;;;;;;;5.20;1.90;;;10.90;99.90;;;;;;5039673;28;20430;-71
2023/03/31 01:55:15;;;;;;;5.15;1.60;;;10.90;99.90;;;;;;5041923;28;20413;-71
2023/03/31 01:57:47;;;;;;;6.18;1.90;;;11.00;99.90;;;;;;5037180;28;20438;-73
2023/03/31 02:00:17;;;;;;;5.05;2.00;;;11.00;99.90;;;;;;5036314;28;20437;-73
2023/03/31 02:02:46;;;;;;;5.50;2.50;;;10.90;99.90;;;;;;5037325;28;20428;-72
2023/03/31 02:05:17;;;;;;;5.33;2.50;;;10.90;99.90;;;;;;5030409;28;20799;-72
2023/03/31 02:07:49;;;;;;;6.32;2.00;;;10.90;99.90;;;;;;5030654;28;20445;-70
2023/03/31 02:10:18;;;;;;;6.28;2.28;;;10.80;99.90;;;;;;5033609;28;20425;-71
2023/03/31 02:12:46;;;;;;;7.00;2.38;;;10.80;99.90;;;;;;5036861;28;20429;-72
2023/03/31 02:15:17;;;;;;;6.60;2.20;;;10.70;99.90;;;;;;5032122;28;20424;-71
2023/03/31 02:17:48;;;;;;;6.47;2.20;;;10.70;99.90;;;;;;5031121;28;20530;-71
2023/03/31 02:20:19;;;;;;;7.47;2.33;;;10.70;99.90;;;;;;5034571;28;20422;-70
2023/03/31 02:22:49;;;;;;;5.65;2.55;;;10.60;99.90;;;;;;5036008;28;20434;-74
2023/03/31 02:25:22;;;;;;;6.90;2.50;;;10.50;99.90;;;;;;5035323;28;20793;-72
2023/03/31 02:27:53;;;;;;;8.80;3.27;;;10.50;99.90;;;;;;5031577;28;20425;-72
2023/03/31 02:30:20;;;;;;;7.70;3.05;;;10.40;99.90;;;;;;5037318;28;20431;-71
2023/03/31 02:32:49;;;;;;;9.70;3.10;;;10.40;99.90;;;;;;5043392;28;20540;-72
2023/03/31 02:35:20;;;;;;;6.85;3.55;;;10.40;99.90;;;;;;5042624;28;20490;-73
2023/03/31 02:37:48;;;;;;;6.55;3.20;;;10.30;99.90;;;;;;5038797;28;20425;-71
2023/03/31 02:40:20;;;;;;;8.65;3.50;;;10.30;99.90;;;;;;5038936;28;20817;-71
2023/03/31 02:42:48;;;;;;;10.82;3.67;;;10.40;99.90;;;;;;5039848;28;20828;-73
2023/03/31 02:45:37;;;;;;;8.30;3.60;;;10.40;99.90;;;;;;5035327;28;20419;-73
2023/03/31 02:48:05;;;;;;;9.10;3.92;;;10.40;99.90;;;;;;5037656;28;20434;-72
2023/03/31 02:50:44;;;;;;;7.90;3.47;;;10.40;99.90;;;;;;5033067;28;20435;-74
2023/03/31 02:53:21;;;;;;;7.78;3.60;;;10.40;99.90;;;;;;5031041;28;20427;-74
2023/03/31 02:56:06;;;;;;;9.05;3.20;;;10.40;99.90;;;;;;5041776;28;20417;-73
2023/03/31 02:58:46;;;;;;;5.97;2.70;;;10.40;99.90;;;;;;5037582;28;20922;-73
2023/03/31 03:01:35;;;;;;;9.93;3.60;;;10.40;99.90;;;;;;5032250;28;20423;-73
2023/03/31 03:04:16;;;;;;;7.60;3.20;;;10.40;99.90;;;;;;5033199;28;20574;-73
2023/03/31 03:06:53;;;;;;;6.30;2.97;;;10.40;99.90;;;;;;5042112;28;20445;-72
2023/03/31 03:09:36;;;;;;;7.45;2.65;;;10.50;99.90;;;;;;5032274;28;20440;-73
2023/03/31 03:12:13;;;;;;;7.57;2.80;;;10.50;99.90;;;;;;5036335;28;20475;-74
2023/03/31 03:14:46;;;;;;;6.97;2.60;;;10.40;99.90;;;;;;5045748;28;20436;-72
2023/03/31 03:17:18;;;;;;;6.45;2.42;;;10.50;99.90;;;;;;5030539;28;20798;-72
2023/03/31 03:19:52;;;;;;;5.75;2.35;;;10.40;99.90;;;;;;5036133;28;20439;-73
2023/03/31 03:22:19;;;;;;;6.60;2.30;;;10.50;99.90;;;;;;5032498;28;20514;-74
2023/03/31 03:24:46;;;;;;;7.45;3.08;;;10.50;99.90;;;;;;5037488;28;20605;-72
2023/03/31 03:27:14;;;;;;;6.60;2.58;;;10.50;99.90;;;;;;5043663;28;20471;-74
2023/03/31 03:29:41;;;;;;;6.65;2.78;;;10.40;99.90;;;;;;5044639;28;20465;-74
2023/03/31 03:32:09;;;;;;;5.47;2.00;;;10.50;99.90;;;;;;5034853;28;20433;-75
2023/03/31 03:34:36;;;;;;;6.07;2.33;;;10.50;99.90;;;;;;5032040;28;20933;-72
2023/03/31 03:37:02;;;;;;;5.93;2.17;;;10.50;99.90;;;;;;5028136;28;20422;-72
2023/03/31 03:39:29;;;;;;;4.65;1.80;;;10.50;99.90;;;;;;5033885;28;20421;-72
2023/03/31 03:41:56;;;;;;;5.07;2.20;;;10.50;99.90;;;;;;5031390;28;20421;-73
2023/03/31 03:44:24;;;;;;;6.90;2.05;;;10.50;99.90;;;;;;5036959;28;20446;-73
2023/03/31 03:46:51;;;;;;;4.00;2.08;;;10.60;99.90;;;;;;5034011;28;20971;-73
2023/03/31 03:49:18;;;;;;;4.78;2.10;;;10.60;99.90;;;;;;5043434;28;20421;-73
2023/03/31 03:51:44;;;;;;;4.38;2.00;;;10.60;99.90;;;;;;5031480;28;20454;-72
2023/03/31 03:54:11;;;;;;;5.13;2.20;;;10.70;99.90;;;;;;5041585;28;20462;-72
2023/03/31 03:56:38;;;;;;;5.55;2.08;;;10.70;99.90;;;;;;5047979;28;20423;-73
2023/03/31 03:59:05;;;;;;;3.95;1.77;;;10.70;99.90;;;;;;5039600;28;20465;-73
2023/03/31 04:01:33;;;;;;;4.13;1.80;;;10.70;99.90;;;;;;5054186;28;20427;-72
2023/03/31 04:04:00;;;;;;;3.67;1.60;;;10.70;99.90;;;;;;5038245;28;20433;-72
2023/03/31 04:06:26;;;;;;;4.13;1.85;;;10.70;99.90;;;;;;5035265;28;20591;-72
2023/03/31 04:08:53;;;;;;;4.70;1.70;;;10.70;99.90;;;;;;5032975;28;20454;-72
2023/03/31 04:11:20;;;;;;;4.07;1.88;;;10.70;99.90;;;;;;5036716;28;20450;-72
2023/03/31 04:13:47;;;;;;;4.13;1.90;;;10.80;99.90;;;;;;5030713;28;20446;-72
2023/03/31 04:16:15;;;;;;;2.88;1.50;;;10.80;99.90;;;;;;5028391;28;20414;-73
2023/03/31 04:18:47;;;;;;;3.90;1.90;;;10.80;99.90;;;;;;5027703;28;20426;-72
2023/03/31 04:21:21;;;;;;;5.35;2.25;;;10.70;99.90;;;;;;5036851;28;20430;-72
2023/03/31 04:23:49;;;;;;;5.20;2.17;;;10.80;99.90;;;;;;5039710;28;20429;-72
2023/03/31 04:26:25;;;;;;;4.68;2.00;;;10.70;99.90;;;;;;5038090;28;20426;-73
2023/03/31 04:28:52;;;;;;;5.15;2.10;;;10.70;99.90;;;;;;5039697;28;20421;-74
2023/03/31 04:31:24;;;;;;;5.05;2.10;;;10.70;99.90;;;;;;5053761;28;20456;-72
2023/03/31 04:33:52;;;;;;;7.32;2.22;;;10.70;99.90;;;;;;5048838;28;20480;-72
2023/03/31 04:36:19;;;;;;;5.32;1.98;;;10.70;99.90;;;;;;5032806;28;20917;-72
2023/03/31 04:38:49;;;;;;;5.50;2.30;;;10.70;99.90;;;;;;5034232;28;20418;-72
2023/03/31 04:41:16;;;;;;;3.70;1.80;;;10.70;99.90;;;;;;5036984;28;20417;-72
2023/03/31 04:43:43;;;;;;;5.40;2.30;;;10.60;99.90;;;;;;5032369;28;20435;-72
2023/03/31 04:46:10;;;;;;;3.67;1.90;;;10.70;99.90;;;;;;5039350;28;20434;-72
2023/03/31 04:48:37;;;;;;;5.30;2.00;;;10.60;99.90;;;;;;5047945;28;20441;-72
2023/03/31 04:51:05;;;;;;;4.60;2.03;;;10.50;99.90;;;;;;5038792;28;20813;-72
2023/03/31 04:53:32;;;;;;;5.55;2.20;;;10.50;99.90;;;;;;5036866;28;20434;-72
2023/03/31 04:55:59;;;;;;;3.30;1.60;;;10.60;99.90;;;;;;5038866;28;20422;-74
2023/03/31 04:58:26;;;;;;;4.40;2.10;;;10.60;99.90;;;;;;5038871;28;20476;-74
2023/03/31 05:00:53;;;;;;;4.85;2.25;;;10.60;99.90;;;;;;5040593;28;20423;-74
2023/03/31 05:03:20;;;;;;;5.20;1.80;;;10.60;99.90;;;;;;5034348;28;20437;-73
2023/03/31 05:05:47;;;;;;;3.05;1.85;;;10.60;99.90;;;;;;5041034;28;21271;-73
2023/03/31 05:08:15;;;;;;;3.63;1.63;;;10.60;99.90;;;;;;5043404;28;21483;-68
2023/03/31 05:10:42;;;;;;;3.58;2.17;;;10.60;99.90;;;;;;5042133;28;20449;-72
2023/03/31 05:13:09;;;;;;;4.47;1.63;;;10.60;99.90;;;;;;5046739;28;20417;-72
2023/03/31 05:15:38;;;;;;;2.83;1.70;;;10.70;99.90;;;;;;5031265;28;20450;-72
2023/03/31 05:18:05;;;;;;;4.82;1.95;;;10.70;99.90;;;;;;5050201;28;20435;-71
2023/03/31 05:20:31;;;;;;;5.00;1.60;;;10.70;99.90;;;;;;5033686;28;20442;-72
2023/03/31 05:22:59;;;;;;;2.83;1.67;;;10.70;99.90;;;;;;5039480;28;20427;-72
2023/03/31 05:25:31;;;;;;;3.55;1.40;;;10.70;99.90;;;;;;5035651;28;20460;-71
2023/03/31 05:27:59;;;;;;;5.32;1.50;;;10.70;99.90;;;;;;5043678;28;20427;-71
2023/03/31 05:30:26;;;;;;;3.10;1.50;;;10.80;99.90;;;;;;5042768;28;20463;-71
2023/03/31 05:32:53;;;;;;;2.88;1.20;;;10.80;99.90;;;;;;5044515;28;20433;-70
2023/03/31 05:35:20;;;;;;;3.22;1.42;;;10.90;99.90;;;;;;5038690;28;20485;-71
2023/03/31 05:37:47;;;;;;;3.40;1.40;;;10.90;99.90;;;;;;5043400;28;20423;-71
2023/03/31 05:40:14;;;;;;;3.10;1.50;;;10.90;99.90;;;;;;5028433;28;20415;-72
2023/03/31 05:42:42;;;;;;;4.13;1.50;;;10.90;99.90;;;;;;5032965;28;20431;-71
2023/03/31 05:45:09;;;;;;;2.17;1.20;;;10.90;99.90;;;;;;5078210;22;20467;-67
2023/03/31 05:47:36;;;;;;;2.30;1.10;;;10.90;99.90;;;;;;5076831;28;20413;-66
2023/03/31 05:50:06;;;;;;;3.00;1.20;;;10.90;99.90;;;;;;5066591;28;20967;-65
2023/03/31 05:52:33;;;;;;;2.75;1.25;;;10.90;99.90;;;;;;5067935;28;20442;-67
2023/03/31 05:54:59;;;;;;;3.27;1.00;;;10.90;99.90;;;;;;5063770;28;20951;-66
2023/03/31 05:57:26;;;;;;;2.40;1.27;;;10.80;99.90;;;;;;5080193;28;20426;-68
2023/03/31 05:59:54;;;;;;;3.40;1.50;;;10.80;99.90;;;;;;5065649;28;20440;-67
2023/03/31 06:02:21;;;;;;;2.78;1.15;;;10.80;99.90;;;;;;5078559;28;20433;-67
2023/03/31 06:04:49;;;;;;;2.22;1.15;;;10.90;99.90;;;;;;5055667;28;20421;-68
2023/03/31 06:07:16;;;;;;;1.65;1.00;;;10.90;99.90;;;;;;5079545;28;20417;-67
2023/03/31 06:09:43;;;;;;;2.08;0.95;;;10.80;99.90;;;;;;5061436;28;20434;-67
2023/03/31 06:12:10;;;;;;;2.00;1.23;;;10.70;99.90;;;;;;5049965;28;20436;-68
2023/03/31 06:14:36;;;;;;;1.90;1.00;;;10.70;99.90;;;;;;5057071;28;21099;-67
2023/03/31 06:17:05;;;;;;;2.45;0.98;;;10.60;99.90;;;;;;5051319;28;20826;-68
2023/03/31 06:19:31;;;;;;;1.10;0.70;;;10.60;99.90;;;;;;5059195;28;20917;-67
2023/03/31 06:21:58;;;;;;;1.67;0.82;;;10.60;99.90;;;;;;5069672;28;20442;-67
2023/03/31 06:24:25;;;;;;;1.20;0.60;;;10.60;99.90;;;;;;5080292;28;20846;-67
2023/03/31 06:26:52;;;;;;;1.50;0.65;;;10.70;98.40;;;;;;5068186;28;20409;-67
2023/03/31 06:29:18;;;;;;;2.08;0.60;;;10.80;98.00;;;;;;5068748;28;20433;-67
2023/03/31 06:31:45;;;;;;;1.80;0.80;;;10.80;98.60;;;;;;5066126;28;20454;-67
2023/03/31 06:34:13;;;;;;;2.10;0.80;;;10.70;99.90;;;;;;5062190;28;20482;-67
2023/03/31 06:36:40;;;;;;;1.40;0.40;;;10.50;99.90;;;;;;5059025;28;20436;-67
2023/03/31 06:39:07;;;;;;;1.70;0.77;;;10.40;99.90;;;;;;5057107;28;20512;-66
2023/03/31 06:41:34;;;;;;;2.42;0.60;;;10.30;99.90;;;;;;5057880;28;20440;-66
2023/03/31 06:44:00;;;;;;;1.80;0.60;;;10.20;99.90;;;;;;5084450;28;20409;-66
2023/03/31 06:46:27;;;;;;;1.30;0.60;;;10.10;99.90;;;;;;5061975;28;20433;-68
2023/03/31 06:48:54;;;;;;;1.50;0.65;;;10.20;99.90;;;;;;5063906;28;20440;-68
2023/03/31 06:51:22;;;;;;;3.28;0.70;;;10.20;99.90;;;;;;5070879;28;20425;-67
2023/03/31 06:53:49;;;;;;;1.25;0.50;;;10.30;99.90;;;;;;5084291;28;20445;-67
2023/03/31 06:56:15;;;;;;;1.50;0.60;;;10.40;99.90;;;;;;5073484;28;20448;-67
2023/03/31 06:58:42;;;;;;;1.20;0.60;;;10.40;99.90;;;;;;5052504;28;20443;-67
2023/03/31 07:01:10;;;;;;;1.67;0.60;;;10.50;99.90;;;;;;5061088;28;20441;-67
2023/03/31 07:03:37;;;;;;;1.75;0.60;;;10.60;99.90;;;;;;5070052;28;20418;-67
2023/03/31 07:06:04;;;;;;;0.80;0.50;;;10.60;99.70;;;;;;5063814;28;20474;-67
2023/03/31 07:08:32;;;;;;;1.40;0.68;;;10.80;99.20;;;;;;5059394;28;20462;-67
2023/03/31 07:11:00;;;;;;;1.08;0.50;;;11.00;99.90;;;;;;5064228;28;20440;-68
2023/03/31 07:13:28;;;;;;;1.50;0.60;;;11.10;98.60;;;;;;5056418;28;20441;-68
2023/03/31 07:15:55;;;;;;;2.55;0.88;;;11.20;98.60;;;;;;5071761;28;20429;-67
2023/03/31 07:18:24;;;;;;;1.30;0.50;;;11.40;97.30;;;;;;5079494;28;20432;-67
2023/03/31 07:20:52;;;;;;;1.15;0.50;;;11.40;96.90;;;;;;5062846;28;20425;-68
2023/03/31 07:23:19;;;;;;;1.05;0.50;;;11.60;96.90;;;;;;5081961;28;20422;-68
2023/03/31 07:25:48;;;;;;;1.10;0.68;;;11.60;95.30;;;;;;5064004;28;21099;-67
2023/03/31 07:28:15;;;;;;;1.42;0.90;;;11.60;96.20;;;;;;5062546;28;20453;-67
2023/03/31 07:30:42;;;;;;;1.20;0.70;;;11.70;95.50;;;;;;5056876;28;20427;-67
2023/03/31 07:33:09;;;;;;;2.30;0.60;;;11.80;94.80;;;;;;5075278;28;20410;-67
2023/03/31 07:35:38;;;;;;;1.83;0.60;;;11.80;95.10;;;;;;5064254;28;20427;-67
2023/03/31 07:38:05;;;;;;;2.80;0.60;;;11.80;95.20;;;;;;5068024;28;20423;-66
2023/03/31 07:40:32;;;;;;;1.70;0.70;;;11.90;94.80;;;;;;5069598;28;20425;-67
2023/03/31 07:43:00;;;;;;;1.60;0.60;;;12.00;94.60;;;;;;5060436;28;20424;-67
2023/03/31 07:45:27;;;;;;;1.20;0.60;;;12.10;93.90;;;;;;5067620;28;20431;-68
2023/03/31 07:47:54;;;;;;;1.30;0.50;;;12.20;95.00;;;;;;5057512;28;20429;-67
2023/03/31 07:50:22;;;;;;;1.15;0.52;;;12.30;93.70;;;;;;5049474;28;20429;-67
2023/03/31 07:52:49;;;;;;;1.83;0.70;;;12.50;92.80;;;;;;5055075;28;20504;-68
2023/03/31 07:55:16;;;;;;;1.42;0.60;;;12.50;92.80;;;;;;5070567;28;20428;-66
2023/03/31 07:57:45;;;;;;;1.10;0.60;;;12.60;93.30;;;;;;5077472;28;20429;-67
2023/03/31 08:00:15;;;;;;;1.70;0.80;;;12.60;93.50;;;;;;5081228;28;20417;-67
2023/03/31 08:02:42;;;;;;;2.35;0.73;;;12.70;93.10;;;;;;5076416;28;20687;-67
2023/03/31 08:05:10;;;;;;;1.60;0.65;;;12.80;93.60;;;;;;5076098;28;20432;-68
2023/03/31 08:07:37;;;;;;;2.55;0.80;;;13.00;93.00;;;;;;5061219;28;20471;-65
2023/03/31 08:10:07;;;;;;;1.58;0.80;;;13.10;92.10;;;;;;5074488;28;20795;-66
2023/03/31 08:12:34;;;;;;;2.92;0.70;;;13.20;92.00;;;;;;5066431;28;20450;-64
2023/03/31 08:15:01;;;;;;;2.10;0.90;;;13.30;91.70;;;;;;5059913;28;20423;-66
2023/03/31 08:17:29;;;;;;;1.92;0.85;;;13.30;91.40;;;;;;5055691;28;20421;-66
2023/03/31 08:19:56;;;;;;;1.25;0.70;;;13.20;91.70;;;;;;5061433;28;20423;-64
2023/03/31 08:22:23;;;;;;;2.20;0.90;;;13.20;92.10;;;;;;5068458;28;20425;-65
2023/03/31 08:24:49;;;;;;;1.80;1.00;;;13.30;92.10;;;;;;5062230;28;20511;-65
2023/03/31 08:27:16;;;;;;;1.88;0.90;;;13.40;91.40;;;;;;5058232;28;20420;-66
2023/03/31 08:29:43;;;;;;;3.35;1.25;;;13.40;90.90;;;;;;5050498;28;20441;-66
2023/03/31 08:32:10;;;;;;;2.30;1.20;;;13.50;90.80;;;;;;5052395;28;20415;-66
2023/03/31 08:34:41;;;;;;;2.40;1.10;;;13.60;91.20;;;;;;5065943;28;20413;-66
2023/03/31 08:37:08;;;;;;;3.20;1.30;;;13.70;90.70;;;;;;5075343;28;20523;-66
2023/03/31 08:39:36;;;;;;;3.22;1.20;;;13.80;89.50;;;;;;5065296;28;20424;-66
2023/03/31 08:42:06;;;;;;;2.13;1.10;;;13.80;89.20;;;;;;5053032;28;20419;-66
2023/03/31 08:44:37;;;;;;;2.83;1.10;;;13.80;88.00;;;;;;5061990;28;20415;-66
2023/03/31 08:47:09;;;;;;;3.90;1.38;;;14.00;85.50;;;;;;5057316;28;20431;-67
2023/03/31 08:49:44;;;;;;;2.95;1.00;;;14.00;84.20;;;;;;5052923;28;20899;-67
2023/03/31 08:52:14;;;;;;;2.25;1.13;;;14.00;83.90;;;;;;5052806;28;20757;-66
2023/03/31 08:54:45;;;;;;;4.57;1.70;;;14.10;83.20;;;;;;5051916;28;20440;-66
2023/03/31 08:57:16;;;;;;;5.95;1.60;;;14.00;83.90;;;;;;5053109;28;20424;-67
2023/03/31 08:59:44;;;;;;;4.40;1.42;;;14.10;84.70;;;;;;5052600;28;20980;-67
2023/03/31 09:02:21;;;;;;;4.90;1.60;;;14.30;83.30;;;;;;5052051;28;20428;-67
2023/03/31 09:05:14;;;;;;;3.42;1.42;;;14.50;82.40;;;;;;5056731;28;20456;-67
2023/03/31 09:07:50;;;;;;;4.30;1.30;;;14.70;80.50;;;;;;5049829;28;20425;-66
2023/03/31 09:10:31;;;;;;;3.90;1.77;;;14.90;78.10;;;;;;5049723;28;20417;-66
2023/03/31 09:13:04;;;;;;;3.38;1.70;;;15.00;78.10;;;;;;5049924;28;20429;-66
2023/03/31 09:15:40;;;;;;;3.63;2.00;;;15.20;79.00;;;;;;5059936;28;20449;-66
2023/03/31 09:18:12;;;;;;;4.78;1.80;;;15.40;74.60;;;;;;5050202;28;20656;-66
2023/03/31 09:20:46;;;;;;;6.35;2.10;;;15.50;75.40;;;;;;5052099;28;20431;-67
2023/03/31 09:23:23;;;;;;;5.68;1.70;;;15.70;73.40;;;;;;5063065;28;20817;-66
2023/03/31 09:25:50;;;;;;;3.40;1.80;;;15.90;73.20;;;;;;5048523;28;20749;-66
2023/03/31 09:28:20;;;;;;;4.45;1.70;;;16.10;73.40;;;;;;5062511;28;20429;-66
2023/03/31 09:30:49;;;;;;;4.57;2.10;;;16.30;68.60;;;;;;5059702;28;20425;-67
2023/03/31 09:33:30;;;;;;;4.60;1.70;;;16.20;69.90;;;;;;5048455;28;20457;-66
2023/03/31 09:35:58;;;;;;;3.80;1.50;;;16.20;70.30;;;;;;5064722;28;20429;-67
2023/03/31 09:38:28;;;;;;;5.53;1.90;;;16.20;67.80;;;;;;5065262;28;20416;-66
2023/03/31 09:40:55;;;;;;;4.95;1.60;;;15.90;69.60;;;;;;5051029;28;20419;-66
2023/03/31 09:43:23;;;;;;;5.72;2.03;;;15.70;75.40;;;;;;5058990;28;20435;-66
2023/03/31 09:45:51;;;;;;;4.38;1.60;;;15.10;81.00;;;;;;5049409;28;20746;-66
2023/03/31 09:48:21;;;;;;;3.95;1.88;;;14.60;79.10;;;;;;5056318;28;20427;-66
2023/03/31 09:50:52;;;;;;;3.25;1.40;;;14.30;82.30;;;;;;5058480;28;21056;-66
2023/03/31 09:53:26;;;;;;;5.43;1.63;;;14.00;73.80;;;;;;5058463;28;20435;-67
2023/03/31 09:55:55;;;;;;;4.90;2.10;;;14.10;75.20;;;;;;5068360;28;20886;-67
2023/03/31 09:58:23;;;;;;;5.40;1.80;;;14.30;77.30;;;;;;5057128;28;20429;-66
2023/03/31 10:00:59;;;;;;;6.38;1.80;;;14.80;72.60;;;;;;5049901;28;20417;-67
2023/03/31 10:03:28;;;;;;;4.53;1.80;;;15.20;69.10;;;;;;5048421;28;20823;-66
2023/03/31 10:05:57;;;;;;;7.28;1.88;;;15.40;67.60;;;;;;5048301;28;20432;-66
2023/03/31 10:08:30;;;;;;;4.10;1.70;;;15.40;67.50;;;;;;5050211;28;20509;-67
2023/03/31 10:11:06;;;;;;;5.55;2.00;;;15.40;69.00;;;;;;5061472;28;20415;-66
2023/03/31 10:13:39;;;;;;;4.85;1.60;;;15.50;68.70;;;;;;5047415;28;20915;-67
2023/03/31 10:16:11;;;;;;;4.97;1.95;;;15.40;68.20;;;;;;5049562;28;20444;-68
2023/03/31 10:18:39;;;;;;;4.90;1.85;;;15.40;68.80;;;;;;5048810;28;20428;-66
2023/03/31 10:21:14;;;;;;;4.53;1.88;;;15.50;68.40;;;;;;5049499;28;20947;-66
2023/03/31 10:23:47;;;;;;;4.70;1.90;;;15.50;69.80;;;;;;5056984;28;20907;-66
2023/03/31 10:26:19;;;;;;;4.45;1.63;;;15.40;69.10;;;;;;5048856;28;20560;-66
2023/03/31 10:28:49;;;;;;;3.35;1.80;;;15.40;70.00;;;;;;5049801;28;20421;-67
2023/03/31 10:31:16;;;;;;;5.15;2.13;;;15.40;68.20;;;;;;5057781;28;20774;-66
2023/03/31 10:33:46;;;;;;;4.72;2.00;;;15.40;68.70;;;;;;5054794;28;20457;-66
2023/03/31 10:36:18;;;;;;;5.10;1.70;;;15.40;68.50;;;;;;5066488;28;20417;-66
2023/03/31 10:38:48;;;;;;;4.80;1.93;;;15.50;68.90;;;;;;5056878;28;20439;-66
2023/03/31 10:41:19;;;;;;;3.50;1.60;;;15.70;69.90;;;;;;5060853;28;20417;-65
2023/03/31 10:43:50;;;;;;;4.63;2.00;;;16.00;65.80;;;;;;5047582;28;20436;-66
2023/03/31 10:46:17;;;;;;;5.00;1.70;;;16.20;63.60;;;;;;5056819;28;20444;-66
2023/03/31 10:48:45;;;;;;;3.58;1.80;;;16.30;64.80;;;;;;5055416;28;20480;-63
2023/03/31 10:51:16;;;;;;;3.97;1.88;;;16.40;62.70;;;;;;5046901;28;21017;-61
2023/03/31 10:53:46;;;;;;;4.35;2.10;;;16.50;62.70;;;;;;5049969;28;20793;-62
2023/03/31 10:56:33;;;;;;;4.50;1.90;;;16.70;63.30;;;;;;5057835;28;20424;-63
2023/03/31 10:59:14;;;;;;;3.72;1.60;;;16.90;59.80;;;;;;5053605;28;20449;-62
2023/03/31 11:01:53;;;;;;;3.40;1.35;;;16.80;60.00;;;;;;5052306;28;20800;-62
2023/03/31 11:04:33;;;;;;;4.32;1.90;;;16.80;58.40;;;;;;5055093;28;20419;-67
2023/03/31 11:07:13;;;;;;;2.95;1.30;;;16.80;60.80;;;;;;5054141;28;20452;-67
2023/03/31 11:09:50;;;;;;;3.33;1.20;;;16.50;59.70;;;;;;5049575;28;20425;-65
2023/03/31 11:12:24;;;;;;;2.88;1.20;;;16.30;59.80;;;;;;5056705;28;20583;-66
2023/03/31 11:15:03;;;;;;;4.50;1.50;;;16.00;61.10;;;;;;5047209;28;20433;-66
2023/03/31 11:17:40;;;;;;;4.10;1.50;;;15.80;62.50;;;;;;5048839;28;20428;-65
2023/03/31 11:20:17;;;;;;;3.90;1.40;;;15.80;63.30;;;;;;5055313;28;20787;-67
2023/03/31 11:22:51;;;;;;;3.70;1.45;;;15.70;64.10;;;;;;5053835;28;20417;-66
2023/03/31 11:25:28;;;;;;;4.53;1.55;;;15.70;65.30;;;;;;5064702;28;20419;-66
2023/03/31 11:28:19;;;;;;;3.38;1.30;;;15.80;65.00;;;;;;5049913;28;20475;-66
2023/03/31 11:30:51;;;;;;;2.83;1.60;;;15.70;65.20;;;;;;5016279;28;20752;-66
2023/03/31 11:33:37;;;;;;;3.03;1.60;;;15.60;65.60;;;;;;5046994;28;20433;-66
2023/03/31 11:36:16;;;;;;;3.10;1.30;;;15.50;66.60;;;;;;5067370;28;20420;-66
2023/03/31 11:38:59;;;;;;;3.13;1.40;;;15.40;65.30;;;;;;5047131;28;20405;-66
2023/03/31 11:41:34;;;;;;;4.78;1.40;;;15.30;67.00;;;;;;5057029;28;20932;-66
2023/03/31 11:44:04;;;;;;;4.28;1.70;;;15.40;67.40;;;;;;5049374;28;20428;-67
2023/03/31 11:46:39;;;;;;;2.90;1.35;;;15.50;67.90;;;;;;5082699;22;20451;-69
2023/03/31 11:49:15;;;;;;;3.78;1.50;;;15.50;66.70;;;;;;5061672;28;20510;-69
2023/03/31 11:51:47;;;;;;;2.88;1.60;;;15.40;68.00;;;;;;5064081;28;20426;-71
2023/03/31 11:54:19;;;;;;;6.35;1.70;;;15.40;69.40;;;;;;5061435;28;20923;-71
2023/03/31 11:56:48;;;;;;;4.10;1.60;;;15.40;68.70;;;;;;5043101;28;20449;-69
2023/03/31 11:59:17;;;;;;;7.70;2.00;;;15.40;69.00;;;;;;5043271;28;20433;-71
2023/03/31 12:01:49;;;;;;;4.90;2.25;;;15.40;66.70;;;;;;5043462;28;20421;-70
2023/03/31 12:04:25;;;;;;;5.18;2.20;;;15.20;68.50;;;;;;5043063;28;20441;-71
2023/03/31 12:06:55;;;;;;;6.75;2.33;;;14.90;76.40;;;;;;5042210;28;20463;-71
2023/03/31 12:09:29;;;;;;;5.82;2.10;;;14.60;82.80;;;;;;5044201;28;20931;-71
2023/03/31 12:12:05;;;;;;;6.05;2.08;;;14.20;85.50;;;;;;5043296;28;20503;-72
2023/03/31 12:14:37;;;;;;;7.05;2.33;;;14.00;90.50;;;;;;5039523;28;21038;-70
2023/03/31 12:17:11;;;;;;;5.47;2.25;;;13.80;94.50;;;;;;5037311;28;20444;-70
2023/03/31 12:19:45;;;;;;;6.30;2.53;;;13.70;95.20;;;;;;5048783;28;20423;-70
2023/03/31 12:22:15;;;;;;;6.85;2.20;;;13.70;92.60;;;;;;5045604;28;20503;-69
2023/03/31 12:24:42;;;;;;;6.43;2.50;;;13.80;92.50;;;;;;5044487;28;20440;-70
2023/03/31 12:27:15;;;;;;;5.70;1.80;;;13.80;92.10;;;;;;5045067;28;20421;-69
2023/03/31 12:29:46;;;;;;;5.45;2.10;;;14.10;91.70;;;;;;5044727;28;20429;-71
2023/03/31 12:32:16;;;;;;;5.60;2.03;;;14.30;88.70;;;;;;5036879;28;20477;-68
2023/03/31 12:34:48;;;;;;;6.18;2.00;;;14.50;81.30;;;;;;5044718;28;20771;-69
2023/03/31 12:37:36;;;;;;;5.07;1.60;;;14.70;79.90;;;;;;5043406;28;20459;-70
2023/03/31 12:40:15;;;;;;;5.93;2.10;;;14.80;77.80;;;;;;5044330;28;20504;-69
2023/03/31 12:43:24;;;;;;;5.10;1.90;;;14.90;75.40;;;;;;5058983;28;20425;-70
2023/03/31 12:46:00;;;;;;;4.47;1.60;;;15.10;73.80;;;;;;5045500;28;20508;-71
2023/03/31 12:48:50;;;;;;;2.70;1.40;;;15.10;68.50;;;;;;5045704;28;20714;-71
2023/03/31 12:51:26;;;;;;;4.15;2.10;;;15.10;70.60;;;;;;5041713;28;20522;-70
2023/03/31 12:54:09;;;;;;;4.90;1.80;;;15.20;68.20;;;;;;5046820;28;20440;-71
2023/03/31 12:57:05;;;;;;;3.60;1.60;;;15.20;68.00;;;;;;5046995;28;20421;-72
2023/03/31 12:59:35;;;;;;;4.47;1.83;;;15.30;70.90;;;;;;5038757;28;20460;-71
2023/03/31 13:02:23;;;;;;;4.28;1.67;;;15.20;72.50;;;;;;5047704;28;20444;-69
2023/03/31 13:04:50;;;;;;;4.03;1.40;;;14.90;70.80;;;;;;5046955;28;20421;-71
2023/03/31 13:07:37;;;;;;;6.43;1.90;;;14.60;86.00;;;;;;5048569;28;20432;-69
2023/03/31 13:10:26;;;;;;;3.45;1.52;;;14.00;91.20;;;;;;5047591;28;20413;-68